sensor_id;sensor_type;location;lat;lon;timestamp;temperature;humidity
67870;DHT22;54673;52.262;6.830;2022-09-09T00:01:51;23.00;51.30
67870;DHT22;54673;52.262;6.830;2022-09-09T00:04:33;23.00;51.30
67870;DHT22;54673;52.262;6.830;2022-09-09T00:07:28;23.00;51.20
67870;DHT22;54673;52.262;6.830;2022-09-09T00:20:36;22.90;51.30
67870;DHT22;54673;52.262;6.830;2022-09-09T00:23:39;22.90;51.40
67870;DHT22;54673;52.262;6.830;2022-09-09T00:29:14;22.90;51.30
67870;DHT22;54673;52.262;6.830;2022-09-09T00:31:45;22.90;51.50
67870;DHT22;54673;52.262;6.830;2022-09-09T00:34:14;22.90;51.60
67870;DHT22;54673;52.262;6.830;2022-09-09T00:36:42;22.80;51.50
67870;DHT22;54673;52.262;6.830;2022-09-09T00:39:36;22.80;51.50
67870;DHT22;54673;52.262;6.830;2022-09-09T00:45:02;22.80;51.60
67870;DHT22;54673;52.262;6.830;2022-09-09T00:47:53;22.80;51.60
67870;DHT22;54673;52.262;6.830;2022-09-09T00:53:32;22.70;51.70
67870;DHT22;54673;52.262;6.830;2022-09-09T00:56:14;22.70;51.70
67870;DHT22;54673;52.262;6.830;2022-09-09T00:59:00;22.70;51.70
67870;DHT22;54673;52.262;6.830;2022-09-09T01:01:31;22.70;51.70
67870;DHT22;54673;52.262;6.830;2022-09-09T01:03:57;22.70;51.70
67870;DHT22;54673;52.262;6.830;2022-09-09T01:06:32;22.70;51.70
67870;DHT22;54673;52.262;6.830;2022-09-09T01:09:36;22.70;51.80
67870;DHT22;54673;52.262;6.830;2022-09-09T01:12:28;22.70;51.80
67870;DHT22;54673;52.262;6.830;2022-09-09T01:15:07;22.70;51.70
67870;DHT22;54673;52.262;6.830;2022-09-09T01:17:48;22.70;51.90
67870;DHT22;54673;52.262;6.830;2022-09-09T01:20:20;22.70;51.80
67870;DHT22;54673;52.262;6.830;2022-09-09T01:26:11;22.70;51.80
67870;DHT22;54673;52.262;6.830;2022-09-09T01:28:40;22.60;51.70
67870;DHT22;54673;52.262;6.830;2022-09-09T01:31:09;22.60;51.70
67870;DHT22;54673;52.262;6.830;2022-09-09T01:33:36;22.60;51.70
67870;DHT22;54673;52.262;6.830;2022-09-09T01:36:12;22.60;51.70
67870;DHT22;54673;52.262;6.830;2022-09-09T01:38:39;22.60;51.70
67870;DHT22;54673;52.262;6.830;2022-09-09T01:41:05;22.60;51.90
67870;DHT22;54673;52.262;6.830;2022-09-09T01:43:30;22.60;52.00
67870;DHT22;54673;52.262;6.830;2022-09-09T01:45:59;22.60;51.70
67870;DHT22;54673;52.262;6.830;2022-09-09T01:48:25;22.50;51.60
67870;DHT22;54673;52.262;6.830;2022-09-09T01:50:51;22.50;51.50
67870;DHT22;54673;52.262;6.830;2022-09-09T01:53:18;22.50;51.60
67870;DHT22;54673;52.262;6.830;2022-09-09T01:56:26;22.50;51.60
67870;DHT22;54673;52.262;6.830;2022-09-09T01:59:24;22.50;51.60
67870;DHT22;54673;52.262;6.830;2022-09-09T02:04:43;22.50;51.60
67870;DHT22;54673;52.262;6.830;2022-09-09T02:10:05;22.50;51.70
67870;DHT22;54673;52.262;6.830;2022-09-09T02:12:36;22.50;51.70
67870;DHT22;54673;52.262;6.830;2022-09-09T02:15:11;22.50;51.80
67870;DHT22;54673;52.262;6.830;2022-09-09T02:17:41;22.40;51.80
67870;DHT22;54673;52.262;6.830;2022-09-09T02:20:11;22.40;51.80
67870;DHT22;54673;52.262;6.830;2022-09-09T02:22:39;22.40;51.80
67870;DHT22;54673;52.262;6.830;2022-09-09T02:25:07;22.40;51.80
67870;DHT22;54673;52.262;6.830;2022-09-09T02:27:34;22.40;51.80
67870;DHT22;54673;52.262;6.830;2022-09-09T02:30:02;22.40;51.80
67870;DHT22;54673;52.262;6.830;2022-09-09T02:32:29;22.40;51.80
67870;DHT22;54673;52.262;6.830;2022-09-09T02:35:05;22.40;51.80
67870;DHT22;54673;52.262;6.830;2022-09-09T02:37:38;22.40;52.60
67870;DHT22;54673;52.262;6.830;2022-09-09T02:40:05;22.30;51.70
67870;DHT22;54673;52.262;6.830;2022-09-09T02:42:31;22.30;51.70
67870;DHT22;54673;52.262;6.830;2022-09-09T02:44:57;22.30;51.70
67870;DHT22;54673;52.262;6.830;2022-09-09T02:50:35;22.30;51.60
67870;DHT22;54673;52.262;6.830;2022-09-09T02:53:21;22.30;51.80
67870;DHT22;54673;52.262;6.830;2022-09-09T02:56:00;22.30;51.70
67870;DHT22;54673;52.262;6.830;2022-09-09T02:58:28;22.30;51.60
67870;DHT22;54673;52.262;6.830;2022-09-09T03:00:53;22.30;51.60
67870;DHT22;54673;52.262;6.830;2022-09-09T03:03:20;22.30;51.60
67870;DHT22;54673;52.262;6.830;2022-09-09T03:05:47;22.20;51.60
67870;DHT22;54673;52.262;6.830;2022-09-09T03:08:13;22.20;51.50
67870;DHT22;54673;52.262;6.830;2022-09-09T03:10:39;22.20;51.60
67870;DHT22;54673;52.262;6.830;2022-09-09T03:13:04;22.20;51.60
67870;DHT22;54673;52.262;6.830;2022-09-09T03:15:32;22.20;51.70
67870;DHT22;54673;52.262;6.830;2022-09-09T03:17:58;22.20;51.80
67870;DHT22;54673;52.262;6.830;2022-09-09T03:20:24;22.20;51.50
67870;DHT22;54673;52.262;6.830;2022-09-09T03:22:52;22.20;51.50
67870;DHT22;54673;52.262;6.830;2022-09-09T03:25:17;22.20;51.50
67870;DHT22;54673;52.262;6.830;2022-09-09T03:27:43;22.20;51.50
67870;DHT22;54673;52.262;6.830;2022-09-09T03:30:09;22.20;51.40
67870;DHT22;54673;52.262;6.830;2022-09-09T03:32:35;22.20;51.30
67870;DHT22;54673;52.262;6.830;2022-09-09T03:35:00;22.20;51.20
67870;DHT22;54673;52.262;6.830;2022-09-09T03:37:26;22.20;51.20
67870;DHT22;54673;52.262;6.830;2022-09-09T03:39:52;22.20;51.20
67870;DHT22;54673;52.262;6.830;2022-09-09T03:42:19;22.20;51.30
67870;DHT22;54673;52.262;6.830;2022-09-09T03:44:47;22.20;51.20
67870;DHT22;54673;52.262;6.830;2022-09-09T03:47:18;22.10;51.20
67870;DHT22;54673;52.262;6.830;2022-09-09T03:49:45;22.10;51.20
67870;DHT22;54673;52.262;6.830;2022-09-09T03:52:10;22.10;51.20
67870;DHT22;54673;52.262;6.830;2022-09-09T03:54:36;22.10;51.10
67870;DHT22;54673;52.262;6.830;2022-09-09T03:57:03;22.10;51.10
67870;DHT22;54673;52.262;6.830;2022-09-09T03:59:28;22.10;51.10
67870;DHT22;54673;52.262;6.830;2022-09-09T04:01:54;22.10;51.40
67870;DHT22;54673;52.262;6.830;2022-09-09T04:04:20;22.10;51.10
67870;DHT22;54673;52.262;6.830;2022-09-09T04:06:46;21.30;50.80
67870;DHT22;54673;52.262;6.830;2022-09-09T04:09:14;22.20;51.20
67870;DHT22;54673;52.262;6.830;2022-09-09T04:11:39;22.20;51.30
67870;DHT22;54673;52.262;6.830;2022-09-09T04:14:05;22.00;51.20
67870;DHT22;54673;52.262;6.830;2022-09-09T04:16:34;22.00;51.20
67870;DHT22;54673;52.262;6.830;2022-09-09T04:19:02;22.00;51.20
67870;DHT22;54673;52.262;6.830;2022-09-09T04:21:32;22.00;51.20
67870;DHT22;54673;52.262;6.830;2022-09-09T04:23:58;22.00;51.20
67870;DHT22;54673;52.262;6.830;2022-09-09T04:26:23;22.00;51.30
67870;DHT22;54673;52.262;6.830;2022-09-09T04:28:49;22.00;51.30
67870;DHT22;54673;52.262;6.830;2022-09-09T04:31:24;22.00;51.30
67870;DHT22;54673;52.262;6.830;2022-09-09T04:33:51;22.00;51.30
67870;DHT22;54673;52.262;6.830;2022-09-09T04:36:18;21.90;51.40
67870;DHT22;54673;52.262;6.830;2022-09-09T04:38:45;21.90;51.50
67870;DHT22;54673;52.262;6.830;2022-09-09T04:41:11;21.90;51.50
67870;DHT22;54673;52.262;6.830;2022-09-09T04:43:37;21.90;51.70
67870;DHT22;54673;52.262;6.830;2022-09-09T04:46:02;21.90;51.80
67870;DHT22;54673;52.262;6.830;2022-09-09T04:48:28;21.90;51.80
67870;DHT22;54673;52.262;6.830;2022-09-09T04:51:04;21.90;51.90
67870;DHT22;54673;52.262;6.830;2022-09-09T04:53:30;21.90;52.00
67870;DHT22;54673;52.262;6.830;2022-09-09T04:56:07;21.90;52.10
67870;DHT22;54673;52.262;6.830;2022-09-09T04:58:33;21.90;52.10
67870;DHT22;54673;52.262;6.830;2022-09-09T05:01:09;21.90;52.20
67870;DHT22;54673;52.262;6.830;2022-09-09T05:03:35;21.90;52.20
67870;DHT22;54673;52.262;6.830;2022-09-09T05:06:05;21.90;52.30
67870;DHT22;54673;52.262;6.830;2022-09-09T05:08:31;21.90;52.30
67870;DHT22;54673;52.262;6.830;2022-09-09T05:10:57;21.90;52.30
67870;DHT22;54673;52.262;6.830;2022-09-09T05:13:25;21.90;52.50
67870;DHT22;54673;52.262;6.830;2022-09-09T05:15:54;21.90;52.50
67870;DHT22;54673;52.262;6.830;2022-09-09T05:18:20;21.90;52.60
67870;DHT22;54673;52.262;6.830;2022-09-09T05:20:48;21.90;52.60
67870;DHT22;54673;52.262;6.830;2022-09-09T05:23:14;21.90;52.70
67870;DHT22;54673;52.262;6.830;2022-09-09T05:25:39;22.00;52.80
67870;DHT22;54673;52.262;6.830;2022-09-09T05:28:08;22.00;52.80
67870;DHT22;54673;52.262;6.830;2022-09-09T05:30:34;22.00;52.90
67870;DHT22;54673;52.262;6.830;2022-09-09T05:33:00;22.00;52.90
67870;DHT22;54673;52.262;6.830;2022-09-09T05:35:26;22.00;52.90
67870;DHT22;54673;52.262;6.830;2022-09-09T05:37:52;22.00;53.00
67870;DHT22;54673;52.262;6.830;2022-09-09T05:40:17;22.40;53.20
67870;DHT22;54673;52.262;6.830;2022-09-09T05:42:43;22.10;53.00
67870;DHT22;54673;52.262;6.830;2022-09-09T05:45:09;22.00;53.00
67870;DHT22;54673;52.262;6.830;2022-09-09T05:47:36;22.10;53.10
67870;DHT22;54673;52.262;6.830;2022-09-09T05:50:02;22.00;53.10
67870;DHT22;54673;52.262;6.830;2022-09-09T05:52:28;22.10;53.20
67870;DHT22;54673;52.262;6.830;2022-09-09T05:54:54;22.10;53.20
67870;DHT22;54673;52.262;6.830;2022-09-09T05:57:21;22.10;53.10
67870;DHT22;54673;52.262;6.830;2022-09-09T05:59:47;22.20;53.10
67870;DHT22;54673;52.262;6.830;2022-09-09T06:02:12;22.20;53.10
67870;DHT22;54673;52.262;6.830;2022-09-09T06:04:38;22.20;53.10
67870;DHT22;54673;52.262;6.830;2022-09-09T06:07:05;22.20;53.00
67870;DHT22;54673;52.262;6.830;2022-09-09T06:09:31;22.20;53.10
67870;DHT22;54673;52.262;6.830;2022-09-09T06:11:56;22.20;53.20
67870;DHT22;54673;52.262;6.830;2022-09-09T06:14:23;22.20;53.20
67870;DHT22;54673;52.262;6.830;2022-09-09T06:16:50;22.20;53.30
67870;DHT22;54673;52.262;6.830;2022-09-09T06:19:16;22.30;53.20
67870;DHT22;54673;52.262;6.830;2022-09-09T06:21:42;22.20;53.20
67870;DHT22;54673;52.262;6.830;2022-09-09T06:24:08;22.20;53.20
67870;DHT22;54673;52.262;6.830;2022-09-09T06:26:38;22.20;53.40
67870;DHT22;54673;52.262;6.830;2022-09-09T06:29:07;22.20;53.40
67870;DHT22;54673;52.262;6.830;2022-09-09T06:31:34;22.20;53.50
67870;DHT22;54673;52.262;6.830;2022-09-09T06:34:04;22.20;53.50
67870;DHT22;54673;52.262;6.830;2022-09-09T06:36:33;22.70;54.00
67870;DHT22;54673;52.262;6.830;2022-09-09T06:38:59;22.20;53.70
67870;DHT22;54673;52.262;6.830;2022-09-09T06:41:27;22.20;53.70
67870;DHT22;54673;52.262;6.830;2022-09-09T06:43:53;22.20;53.70
67870;DHT22;54673;52.262;6.830;2022-09-09T06:46:22;21.50;53.60
67870;DHT22;54673;52.262;6.830;2022-09-09T06:48:48;22.30;53.90
67870;DHT22;54673;52.262;6.830;2022-09-09T06:51:22;22.20;53.80
67870;DHT22;54673;52.262;6.830;2022-09-09T06:53:51;22.20;53.80
67870;DHT22;54673;52.262;6.830;2022-09-09T06:58:45;22.30;53.90
67870;DHT22;54673;52.262;6.830;2022-09-09T07:01:14;22.30;53.90
67870;DHT22;54673;52.262;6.830;2022-09-09T07:03:40;22.30;53.90
67870;DHT22;54673;52.262;6.830;2022-09-09T07:06:09;22.30;54.00
67870;DHT22;54673;52.262;6.830;2022-09-09T07:08:40;22.30;53.80
67870;DHT22;54673;52.262;6.830;2022-09-09T07:11:07;22.40;54.10
67870;DHT22;54673;52.262;6.830;2022-09-09T07:13:33;22.40;54.30
67870;DHT22;54673;52.262;6.830;2022-09-09T07:16:07;22.40;54.20
67870;DHT22;54673;52.262;6.830;2022-09-09T07:18:33;22.40;54.00
67870;DHT22;54673;52.262;6.830;2022-09-09T07:21:00;22.40;54.40
67870;DHT22;54673;52.262;6.830;2022-09-09T07:23:27;22.40;54.50
67870;DHT22;54673;52.262;6.830;2022-09-09T07:25:53;22.40;54.30
67870;DHT22;54673;52.262;6.830;2022-09-09T07:28:20;22.40;54.30
67870;DHT22;54673;52.262;6.830;2022-09-09T07:31:00;22.30;54.20
67870;DHT22;54673;52.262;6.830;2022-09-09T07:33:29;22.30;54.20
67870;DHT22;54673;52.262;6.830;2022-09-09T07:36:14;22.40;54.60
67870;DHT22;54673;52.262;6.830;2022-09-09T07:41:10;22.40;54.40
67870;DHT22;54673;52.262;6.830;2022-09-09T07:43:41;22.40;54.60
67870;DHT22;54673;52.262;6.830;2022-09-09T07:46:08;22.30;54.40
67870;DHT22;54673;52.262;6.830;2022-09-09T07:48:34;22.40;54.50
67870;DHT22;54673;52.262;6.830;2022-09-09T07:51:08;22.40;55.00
67870;DHT22;54673;52.262;6.830;2022-09-09T07:53:34;22.40;54.50
67870;DHT22;54673;52.262;6.830;2022-09-09T07:56:11;22.40;54.70
67870;DHT22;54673;52.262;6.830;2022-09-09T07:58:37;22.40;55.10
67870;DHT22;54673;52.262;6.830;2022-09-09T08:01:18;22.40;55.00
67870;DHT22;54673;52.262;6.830;2022-09-09T08:03:45;22.40;54.70
67870;DHT22;54673;52.262;6.830;2022-09-09T08:06:12;22.50;54.80
67870;DHT22;54673;52.262;6.830;2022-09-09T08:08:38;22.50;54.70
67870;DHT22;54673;52.262;6.830;2022-09-09T08:11:12;22.50;55.30
67870;DHT22;54673;52.262;6.830;2022-09-09T08:13:38;22.50;55.20
67870;DHT22;54673;52.262;6.830;2022-09-09T08:16:15;22.50;55.00
67870;DHT22;54673;52.262;6.830;2022-09-09T08:18:42;22.50;55.00
67870;DHT22;54673;52.262;6.830;2022-09-09T08:21:13;22.50;55.00
67870;DHT22;54673;52.262;6.830;2022-09-09T08:23:40;22.60;55.10
67870;DHT22;54673;52.262;6.830;2022-09-09T08:26:13;22.50;54.70
67870;DHT22;54673;52.262;6.830;2022-09-09T08:28:40;22.50;54.60
67870;DHT22;54673;52.262;6.830;2022-09-09T08:31:07;22.50;54.70
67870;DHT22;54673;52.262;6.830;2022-09-09T08:33:33;22.50;54.70
67870;DHT22;54673;52.262;6.830;2022-09-09T08:35:59;22.50;54.80
67870;DHT22;54673;52.262;6.830;2022-09-09T08:38:24;22.50;54.70
67870;DHT22;54673;52.262;6.830;2022-09-09T08:40:53;22.50;54.70
67870;DHT22;54673;52.262;6.830;2022-09-09T08:43:24;22.40;54.60
67870;DHT22;54673;52.262;6.830;2022-09-09T08:48:44;22.40;54.60
67870;DHT22;54673;52.262;6.830;2022-09-09T08:51:13;22.50;54.90
67870;DHT22;54673;52.262;6.830;2022-09-09T08:53:46;22.50;54.70
67870;DHT22;54673;52.262;6.830;2022-09-09T08:56:18;22.50;54.50
67870;DHT22;54673;52.262;6.830;2022-09-09T08:58:49;22.50;54.40
67870;DHT22;54673;52.262;6.830;2022-09-09T09:04:13;22.50;54.40
67870;DHT22;54673;52.262;6.830;2022-09-09T09:10:09;22.50;54.10
67870;DHT22;54673;52.262;6.830;2022-09-09T09:12:44;22.50;54.10
67870;DHT22;54673;52.262;6.830;2022-09-09T09:15:18;22.50;54.10
67870;DHT22;54673;52.262;6.830;2022-09-09T09:17:46;22.40;54.00
67870;DHT22;54673;52.262;6.830;2022-09-09T09:20:15;22.50;54.10
67870;DHT22;54673;52.262;6.830;2022-09-09T09:22:52;22.50;53.90
67870;DHT22;54673;52.262;6.830;2022-09-09T09:25:25;22.50;54.00
67870;DHT22;54673;52.262;6.830;2022-09-09T09:30:29;22.60;54.00
67870;DHT22;54673;52.262;6.830;2022-09-09T09:33:00;22.60;53.70
67870;DHT22;54673;52.262;6.830;2022-09-09T09:35:27;22.00;53.50
67870;DHT22;54673;52.262;6.830;2022-09-09T09:37:53;22.70;53.50
67870;DHT22;54673;52.262;6.830;2022-09-09T09:40:21;22.70;52.90
67870;DHT22;54673;52.262;6.830;2022-09-09T09:43:00;22.70;52.90
67870;DHT22;54673;52.262;6.830;2022-09-09T09:45:34;22.70;52.80
67870;DHT22;54673;52.262;6.830;2022-09-09T09:48:11;22.70;52.80
67870;DHT22;54673;52.262;6.830;2022-09-09T09:53:30;22.70;52.30
67870;DHT22;54673;52.262;6.830;2022-09-09T09:56:09;22.70;53.30
67870;DHT22;54673;52.262;6.830;2022-09-09T10:01:23;22.70;52.20
67870;DHT22;54673;52.262;6.830;2022-09-09T10:04:00;22.80;52.10
67870;DHT22;54673;52.262;6.830;2022-09-09T10:08:56;22.70;51.50
67870;DHT22;54673;52.262;6.830;2022-09-09T10:11:48;22.70;51.70
67870;DHT22;54673;52.262;6.830;2022-09-09T10:14:22;22.70;51.50
67870;DHT22;54673;52.262;6.830;2022-09-09T10:19:37;22.70;51.50
67870;DHT22;54673;52.262;6.830;2022-09-09T10:27:33;22.60;51.30
67870;DHT22;54673;52.262;6.830;2022-09-09T10:30:25;22.60;51.30
67870;DHT22;54673;52.262;6.830;2022-09-09T10:33:16;22.60;51.40
67870;DHT22;54673;52.262;6.830;2022-09-09T10:38:40;22.70;52.10
67870;DHT22;54673;52.262;6.830;2022-09-09T10:41:23;22.80;53.10
67870;DHT22;54673;52.262;6.830;2022-09-09T10:49:32;22.80;51.80
67870;DHT22;54673;52.262;6.830;2022-09-09T10:52:27;22.80;51.70
67870;DHT22;54673;52.262;6.830;2022-09-09T10:55:02;22.80;51.10
67870;DHT22;54673;52.262;6.830;2022-09-09T10:57:48;22.80;51.30
67870;DHT22;54673;52.262;6.830;2022-09-09T11:00:18;22.80;51.50
67870;DHT22;54673;52.262;6.830;2022-09-09T11:02:49;22.80;51.50
67870;DHT22;54673;52.262;6.830;2022-09-09T11:05:21;22.90;51.20
67870;DHT22;54673;52.262;6.830;2022-09-09T11:07:55;22.80;51.20
67870;DHT22;54673;52.262;6.830;2022-09-09T11:12:59;22.80;51.10
67870;DHT22;54673;52.262;6.830;2022-09-09T11:15:40;22.90;51.00
67870;DHT22;54673;52.262;6.830;2022-09-09T11:18:13;22.90;50.80
67870;DHT22;54673;52.262;6.830;2022-09-09T11:20:40;22.90;50.90
67870;DHT22;54673;52.262;6.830;2022-09-09T11:23:12;22.90;50.70
67870;DHT22;54673;52.262;6.830;2022-09-09T11:25:46;22.90;50.80
67870;DHT22;54673;52.262;6.830;2022-09-09T11:31:43;22.90;50.60
67870;DHT22;54673;52.262;6.830;2022-09-09T11:34:23;22.70;50.60
67870;DHT22;54673;52.262;6.830;2022-09-09T11:37:16;22.90;50.90
67870;DHT22;54673;52.262;6.830;2022-09-09T11:39:53;22.90;50.70
67870;DHT22;54673;52.262;6.830;2022-09-09T11:42:25;22.90;50.80
67870;DHT22;54673;52.262;6.830;2022-09-09T11:44:52;22.90;50.60
67870;DHT22;54673;52.262;6.830;2022-09-09T11:47:24;22.90;50.70
67870;DHT22;54673;52.262;6.830;2022-09-09T11:49:52;22.90;50.70
67870;DHT22;54673;52.262;6.830;2022-09-09T11:52:36;22.90;50.60
67870;DHT22;54673;52.262;6.830;2022-09-09T11:55:24;22.90;50.50
67870;DHT22;54673;52.262;6.830;2022-09-09T11:57:58;22.90;50.60
67870;DHT22;54673;52.262;6.830;2022-09-09T12:00:43;22.90;50.20
67870;DHT22;54673;52.262;6.830;2022-09-09T12:06:12;22.80;49.70
67870;DHT22;54673;52.262;6.830;2022-09-09T12:08:43;22.80;49.40
67870;DHT22;54673;52.262;6.830;2022-09-09T12:11:09;22.80;49.60
67870;DHT22;54673;52.262;6.830;2022-09-09T12:13:34;22.80;49.40
67870;DHT22;54673;52.262;6.830;2022-09-09T12:16:01;22.80;49.10
67870;DHT22;54673;52.262;6.830;2022-09-09T12:18:38;22.80;49.20
67870;DHT22;54673;52.262;6.830;2022-09-09T12:22:15;22.80;49.30
67870;DHT22;54673;52.262;6.830;2022-09-09T12:24:44;22.80;49.20
67870;DHT22;54673;52.262;6.830;2022-09-09T12:27:29;22.70;49.10
67870;DHT22;54673;52.262;6.830;2022-09-09T12:30:04;22.70;49.20
67870;DHT22;54673;52.262;6.830;2022-09-09T12:32:33;22.70;49.60
67870;DHT22;54673;52.262;6.830;2022-09-09T12:35:18;22.80;50.00
67870;DHT22;54673;52.262;6.830;2022-09-09T12:38:02;22.80;49.90
67870;DHT22;54673;52.262;6.830;2022-09-09T12:40:31;22.80;49.70
67870;DHT22;54673;52.262;6.830;2022-09-09T12:43:00;22.80;49.60
67870;DHT22;54673;52.262;6.830;2022-09-09T12:45:30;22.90;49.80
67870;DHT22;54673;52.262;6.830;2022-09-09T12:48:00;22.80;49.60
67870;DHT22;54673;52.262;6.830;2022-09-09T12:50:36;22.80;49.30
67870;DHT22;54673;52.262;6.830;2022-09-09T12:53:22;22.80;49.60
67870;DHT22;54673;52.262;6.830;2022-09-09T12:55:54;22.70;50.10
67870;DHT22;54673;52.262;6.830;2022-09-09T12:58:21;22.70;50.50
67870;DHT22;54673;52.262;6.830;2022-09-09T13:00:52;22.80;50.70
67870;DHT22;54673;52.262;6.830;2022-09-09T13:03:20;22.70;50.70
67870;DHT22;54673;52.262;6.830;2022-09-09T13:05:49;22.70;50.80
67870;DHT22;54673;52.262;6.830;2022-09-09T13:08:16;22.80;50.90
67870;DHT22;54673;52.262;6.830;2022-09-09T13:10:57;22.70;50.90
67870;DHT22;54673;52.262;6.830;2022-09-09T13:13:31;22.70;50.70
67870;DHT22;54673;52.262;6.830;2022-09-09T13:16:01;22.70;50.60
67870;DHT22;54673;52.262;6.830;2022-09-09T13:18:33;22.70;51.00
67870;DHT22;54673;52.262;6.830;2022-09-09T13:20:59;22.70;51.50
67870;DHT22;54673;52.262;6.830;2022-09-09T13:23:36;22.70;52.10
67870;DHT22;54673;52.262;6.830;2022-09-09T13:28:48;22.40;52.50
67870;DHT22;54673;52.262;6.830;2022-09-09T13:31:29;22.70;52.80
67870;DHT22;54673;52.262;6.830;2022-09-09T13:33:55;22.70;52.80
67870;DHT22;54673;52.262;6.830;2022-09-09T13:36:31;22.70;52.80
67870;DHT22;54673;52.262;6.830;2022-09-09T13:38:59;22.70;52.90
67870;DHT22;54673;52.262;6.830;2022-09-09T13:41:32;22.70;52.90
67870;DHT22;54673;52.262;6.830;2022-09-09T13:43:59;22.80;53.00
67870;DHT22;54673;52.262;6.830;2022-09-09T13:46:35;22.80;53.10
67870;DHT22;54673;52.262;6.830;2022-09-09T13:49:22;22.80;53.10
67870;DHT22;54673;52.262;6.830;2022-09-09T13:51:50;22.80;53.00
67870;DHT22;54673;52.262;6.830;2022-09-09T13:54:19;22.90;52.90
67870;DHT22;54673;52.262;6.830;2022-09-09T13:56:46;22.90;52.90
67870;DHT22;54673;52.262;6.830;2022-09-09T13:59:17;22.90;52.90
67870;DHT22;54673;52.262;6.830;2022-09-09T14:01:45;22.90;53.20
67870;DHT22;54673;52.262;6.830;2022-09-09T14:04:11;22.90;52.80
67870;DHT22;54673;52.262;6.830;2022-09-09T14:06:38;22.90;52.60
67870;DHT22;54673;52.262;6.830;2022-09-09T14:09:09;22.90;52.40
67870;DHT22;54673;52.262;6.830;2022-09-09T14:11:36;22.90;52.40
67870;DHT22;54673;52.262;6.830;2022-09-09T14:14:01;22.90;52.40
67870;DHT22;54673;52.262;6.830;2022-09-09T14:16:27;22.90;52.50
67870;DHT22;54673;52.262;6.830;2022-09-09T14:18:53;22.90;53.50
67870;DHT22;54673;52.262;6.830;2022-09-09T14:21:21;22.90;52.60
67870;DHT22;54673;52.262;6.830;2022-09-09T14:23:47;22.90;52.50
67870;DHT22;54673;52.262;6.830;2022-09-09T14:26:13;22.90;52.80
67870;DHT22;54673;52.262;6.830;2022-09-09T14:28:39;22.90;52.80
67870;DHT22;54673;52.262;6.830;2022-09-09T14:31:06;22.90;53.00
67870;DHT22;54673;52.262;6.830;2022-09-09T14:33:32;22.80;52.80
67870;DHT22;54673;52.262;6.830;2022-09-09T14:36:00;22.80;52.90
67870;DHT22;54673;52.262;6.830;2022-09-09T14:38:29;22.90;53.10
67870;DHT22;54673;52.262;6.830;2022-09-09T14:40:56;22.80;53.10
67870;DHT22;54673;52.262;6.830;2022-09-09T14:43:21;22.80;53.10
67870;DHT22;54673;52.262;6.830;2022-09-09T14:45:47;22.80;53.20
67870;DHT22;54673;52.262;6.830;2022-09-09T14:48:17;22.80;53.30
67870;DHT22;54673;52.262;6.830;2022-09-09T14:50:42;22.90;53.40
67870;DHT22;54673;52.262;6.830;2022-09-09T14:53:09;22.90;53.20
67870;DHT22;54673;52.262;6.830;2022-09-09T14:55:35;22.80;53.10
67870;DHT22;54673;52.262;6.830;2022-09-09T14:58:02;22.80;53.10
67870;DHT22;54673;52.262;6.830;2022-09-09T15:00:27;22.80;53.10
67870;DHT22;54673;52.262;6.830;2022-09-09T15:02:53;22.80;53.10
67870;DHT22;54673;52.262;6.830;2022-09-09T15:05:20;22.90;53.20
67870;DHT22;54673;52.262;6.830;2022-09-09T15:07:45;22.90;53.20
67870;DHT22;54673;52.262;6.830;2022-09-09T15:10:11;22.90;53.40
67870;DHT22;54673;52.262;6.830;2022-09-09T15:12:37;22.90;53.10
67870;DHT22;54673;52.262;6.830;2022-09-09T15:15:04;22.90;53.00
67870;DHT22;54673;52.262;6.830;2022-09-09T15:17:31;22.90;52.80
67870;DHT22;54673;52.262;6.830;2022-09-09T15:19:56;22.90;52.80
67870;DHT22;54673;52.262;6.830;2022-09-09T15:22:22;22.90;52.90
67870;DHT22;54673;52.262;6.830;2022-09-09T15:24:49;22.90;53.00
67870;DHT22;54673;52.262;6.830;2022-09-09T15:27:15;22.90;53.10
67870;DHT22;54673;52.262;6.830;2022-09-09T15:29:41;22.90;53.20
67870;DHT22;54673;52.262;6.830;2022-09-09T15:32:07;22.90;53.20
67870;DHT22;54673;52.262;6.830;2022-09-09T15:34:32;22.90;53.10
67870;DHT22;54673;52.262;6.830;2022-09-09T15:36:58;22.90;53.00
67870;DHT22;54673;52.262;6.830;2022-09-09T15:39:25;22.90;52.90
67870;DHT22;54673;52.262;6.830;2022-09-09T15:41:50;22.90;52.90
67870;DHT22;54673;52.262;6.830;2022-09-09T15:44:16;22.90;52.80
67870;DHT22;54673;52.262;6.830;2022-09-09T15:46:50;22.90;52.80
67870;DHT22;54673;52.262;6.830;2022-09-09T15:49:18;22.90;52.80
67870;DHT22;54673;52.262;6.830;2022-09-09T15:51:46;22.90;52.80
67870;DHT22;54673;52.262;6.830;2022-09-09T15:54:17;22.90;52.80
67870;DHT22;54673;52.262;6.830;2022-09-09T15:56:43;22.90;52.70
67870;DHT22;54673;52.262;6.830;2022-09-09T15:59:09;23.00;52.60
67870;DHT22;54673;52.262;6.830;2022-09-09T16:01:35;23.10;52.60
67870;DHT22;54673;52.262;6.830;2022-09-09T16:04:01;23.00;52.50
67870;DHT22;54673;52.262;6.830;2022-09-09T16:06:28;23.10;52.60
67870;DHT22;54673;52.262;6.830;2022-09-09T16:08:55;23.10;52.70
67870;DHT22;54673;52.262;6.830;2022-09-09T16:11:24;23.10;52.60
67870;DHT22;54673;52.262;6.830;2022-09-09T16:13:51;23.10;52.80
67870;DHT22;54673;52.262;6.830;2022-09-09T16:16:19;23.00;52.90
67870;DHT22;54673;52.262;6.830;2022-09-09T16:18:58;23.90;53.50
67870;DHT22;54673;52.262;6.830;2022-09-09T16:21:32;23.00;52.90
67870;DHT22;54673;52.262;6.830;2022-09-09T16:23:59;23.00;53.00
67870;DHT22;54673;52.262;6.830;2022-09-09T16:26:25;23.00;53.10
67870;DHT22;54673;52.262;6.830;2022-09-09T16:28:52;23.00;53.40
67870;DHT22;54673;52.262;6.830;2022-09-09T16:31:22;22.90;53.90
67870;DHT22;54673;52.262;6.830;2022-09-09T16:33:48;22.90;54.30
67870;DHT22;54673;52.262;6.830;2022-09-09T16:36:20;22.90;55.30
67870;DHT22;54673;52.262;6.830;2022-09-09T16:38:46;22.90;54.40
67870;DHT22;54673;52.262;6.830;2022-09-09T16:41:13;22.90;54.60
67870;DHT22;54673;52.262;6.830;2022-09-09T16:43:40;22.80;54.70
67870;DHT22;54673;52.262;6.830;2022-09-09T16:46:17;22.90;54.90
67870;DHT22;54673;52.262;6.830;2022-09-09T16:48:44;22.90;55.00
67870;DHT22;54673;52.262;6.830;2022-09-09T16:51:18;22.80;55.00
67870;DHT22;54673;52.262;6.830;2022-09-09T16:53:45;22.80;54.90
67870;DHT22;54673;52.262;6.830;2022-09-09T16:56:16;22.80;55.00
67870;DHT22;54673;52.262;6.830;2022-09-09T16:58:43;22.80;55.10
67870;DHT22;54673;52.262;6.830;2022-09-09T17:01:10;22.90;55.30
67870;DHT22;54673;52.262;6.830;2022-09-09T17:03:39;22.80;55.20
67870;DHT22;54673;52.262;6.830;2022-09-09T17:06:09;22.80;55.20
67870;DHT22;54673;52.262;6.830;2022-09-09T17:08:35;22.80;55.30
67870;DHT22;54673;52.262;6.830;2022-09-09T17:11:01;22.90;55.30
67870;DHT22;54673;52.262;6.830;2022-09-09T17:13:26;22.90;55.30
67870;DHT22;54673;52.262;6.830;2022-09-09T17:15:52;23.00;55.20